Startpagina
METAR-TAF:

METAR-TAF

Vliegvelden :

Ponta Delgada, Azoren, Portugal

Aeroporto João Paulo II

breedte: 37-44N, lengte: 025-42W, hoogte: 71 m

Actueel weer

Dit bericht is 15 minuten geleden gemaakt, om 05:00 UTC
Wind 6 kt uit het zuidzuidoosten, variërend tussen het zuidoosten en het zuidzuidwesten
Temperatuur 15°C
Vochtigheid 55%
Druk 1026 hPa
Zicht 10 km of meer
Weinig wolken op 2200 ft

METAR: LPPD 180500Z 16006KT 130V200 9999 FEW022 15/06 Q1026

Tijdstip: 04:15 (05:15 UTC)

Verwachting

Dit bericht is 6 uur en het 15 minuten geleden gemaakt, om 23:00 UTC
Verwachting geldig van 18 om 00 UTC tot 18 om 24 UTC
Wind 5 kt uit variabele richting
Zicht 10 km of meer
Weinig wolken op 3000 ft
Tijdelijke
van 18 om 00 UTC tot 18 om 24 UTC
Verspreide wolken op 2500 ft
Gebroken wolken op 4500 ft
Tijdelijke
van 18 om 00 UTC tot 18 om 15 UTC
Wind 8 kt uit het zuidzuidoosten

TAF: LPPD 172300Z 1800/1824 VRB05KT 9999 FEW030 TEMPO 1800/1824 SCT025 BKN045 TEMPO 1800/1815 16008KT

Waarnemingen en weersverwachtingen van meer dan 4000 vliegvelden (METAR en TAF).

De beschikbare stations zijn de gele en rode punten op de kaart.

Ga met uw muis naar het station om de naam te zien.

Klik dan om waarnemingen en weersverwachtingen te zien.

kaart wijzigen: klik op de groene knoppen met een zwart kruis om in te zoomen, op de groene knop met een streepje om uit te zoomen of op de groene pijlen voor aangrenzende kaarten.


METAR-TAF: